Time;durP1;ratioP1;P1;durP2;ratioP2;P2;SDS_P1;SDS_P2;PMS_P1;PMS_P2;Temp;Humidity;BMP_temperature;BMP_pressure;BME280_temperature;BME280_humidity;BME280_pressure;Samples;Min_cycle;Max_cycle;Signal;HPM_P1;HPM_P2
2023/12/31 00:00:10;;;;;;;;;;;;;;;;;;5071293;28;19924;-72
2023/12/31 00:02:38;;;;;;;;;;;;;;;;;;5067375;28;20314;-72
2023/12/31 00:05:05;;;;;;;;;;;;;;;;;;5055393;28;20303;-71
2023/12/31 00:07:33;;;;;;;;;;;;;;;;;;5066338;28;20421;-71
2023/12/31 00:10:00;;;;;;;;;;;;;;;;;;5068790;28;19929;-71
2023/12/31 00:12:27;;;;;;;;;;;;;;;;;;5070129;28;19929;-71
2023/12/31 00:14:54;;;;;;;;;;;;;;;;;;5066057;28;20398;-71
2023/12/31 00:17:21;;;;;;;;;;;;;;;;;;5064866;28;19978;-71
2023/12/31 00:19:48;;;;;;;;;;;;;;;;;;5068242;28;20512;-72
2023/12/31 00:22:15;;;;;;;;;;;;;;;;;;5064674;28;19928;-71
2023/12/31 00:24:42;;;;;;;;;;;;;;;;;;5060067;28;19925;-72
2023/12/31 00:27:10;;;;;;;;;;;;;;;;;;5071170;28;19924;-72
2023/12/31 00:29:37;;;;;;;;;;;;;;;;;;5069102;28;20015;-71
2023/12/31 00:32:04;;;;;;;;;;;;;;;;;;5064915;28;19925;-70
2023/12/31 00:34:31;;;;;;;;;;;;;;;;;;5071809;28;19978;-70
2023/12/31 00:36:58;;;;;;;;;;;;;;;;;;5070121;28;19970;-70
2023/12/31 00:39:26;;;;;;;;;;;;;;;;;;5067422;28;19928;-70
2023/12/31 00:41:53;;;;;;;;;;;;;;;;;;5068620;28;19924;-71
2023/12/31 00:44:20;;;;;;;;;;;;;;;;;;5068770;28;19924;-70
2023/12/31 00:46:47;;;;;;;;;;;;;;;;;;5067833;28;19985;-70
2023/12/31 00:49:14;;;;;;;;;;;;;;;;;;5069201;28;19928;-71
2023/12/31 00:51:41;;;;;;;;;;;;;;;;;;5069200;28;19978;-70
2023/12/31 00:54:08;;;;;;;;;;;;;;;;;;5067853;28;20379;-71
2023/12/31 00:56:36;;;;;;;;;;;;;;;;;;5068086;28;20307;-69
2023/12/31 00:59:03;;;;;;;;;;;;;;;;;;5068396;28;20326;-69
2023/12/31 01:01:30;;;;;;;;;;;;;;;;;;5067360;28;20031;-69
2023/12/31 01:03:57;;;;;;;;;;;;;;;;;;5067250;28;19986;-69
2023/12/31 01:06:24;;;;;;;;;;;;;;;;;;5068608;28;19925;-70
2023/12/31 01:08:51;;;;;;;;;;;;;;;;;;5071085;28;19925;-70
2023/12/31 01:11:18;;;;;;;;;;;;;;;;;;5070964;28;20049;-70
2023/12/31 01:13:45;;;;;;;;;;;;;;;;;;5066715;28;19932;-69
2023/12/31 01:16:13;;;;;;;;;;;;;;;;;;5068918;28;19951;-70
2023/12/31 01:18:40;;;;;;;;;;;;;;;;;;5069675;28;20366;-69
2023/12/31 01:21:07;;;;;;;;;;;;;;;;;;5069168;28;19930;-70
2023/12/31 01:23:34;;;;;;;;;;;;;;;;;;5070286;28;19932;-70
2023/12/31 01:26:01;;;;;;;;;;;;;;;;;;5069826;28;19978;-70
2023/12/31 01:28:29;;;;;;;;;;;;;;;;;;5071546;28;19924;-70
2023/12/31 01:30:56;;;;;;;;;;;;;;;;;;5069170;28;20001;-70
2023/12/31 01:33:23;;;;;;;;;;;;;;;;;;5066401;28;19943;-70
2023/12/31 01:35:50;;;;;;;;;;;;;;;;;;5069796;28;19933;-70
2023/12/31 01:38:17;;;;;;;;;;;;;;;;;;5068760;28;19951;-70
2023/12/31 01:40:44;;;;;;;;;;;;;;;;;;5070112;28;19992;-69
2023/12/31 01:43:11;;;;;;;;;;;;;;;;;;5068836;28;20522;-69
2023/12/31 01:45:38;;;;;;;;;;;;;;;;;;5067040;28;19925;-69
2023/12/31 01:48:05;;;;;;;;;;;;;;;;;;5068621;28;19924;-70
2023/12/31 01:50:32;;;;;;;;;;;;;;;;;;5069098;28;19986;-69
2023/12/31 01:52:59;;;;;;;;;;;;;;;;;;5063036;28;19977;-69
2023/12/31 01:55:26;;;;;;;;;;;;;;;;;;5068784;28;19928;-70
2023/12/31 01:57:53;;;;;;;;;;;;;;;;;;5069504;28;19924;-69
2023/12/31 02:00:20;;;;;;;;;;;;;;;;;;5066088;28;19934;-69
2023/12/31 02:02:47;;;;;;;;;;;;;;;;;;5070018;28;19954;-69
2023/12/31 02:05:14;;;;;;;;;;;;;;;;;;5067588;28;19924;-69
2023/12/31 02:07:42;;;;;;;;;;;;;;;;;;5066886;28;19978;-69
2023/12/31 02:10:09;;;;;;;;;;;;;;;;;;5069555;28;19924;-69
2023/12/31 02:12:36;;;;;;;;;;;;;;;;;;5071071;28;20296;-69
2023/12/31 02:15:03;;;;;;;;;;;;;;;;;;5070124;28;20466;-69
2023/12/31 02:17:30;;;;;;;;;;;;;;;;;;5068176;28;19924;-69
2023/12/31 02:19:57;;;;;;;;;;;;;;;;;;5071509;28;19932;-70
2023/12/31 02:22:24;;;;;;;;;;;;;;;;;;5072087;28;19925;-70
2023/12/31 02:24:51;;;;;;;;;;;;;;;;;;5069509;28;20045;-70
2023/12/31 02:27:18;;;;;;;;;;;;;;;;;;5070726;28;19924;-70
2023/12/31 02:29:45;;;;;;;;;;;;;;;;;;5072688;28;19924;-70
2023/12/31 02:32:13;;;;;;;;;;;;;;;;;;5073061;28;19986;-71
2023/12/31 02:34:44;;;;;;;;;;;;;;;;;;5072365;28;19925;-70
2023/12/31 02:37:11;;;;;;;;;;;;;;;;;;5070791;28;19924;-70
2023/12/31 02:39:38;;;;;;;;;;;;;;;;;;5053541;28;20401;-69
2023/12/31 02:42:05;;;;;;;;;;;;;;;;;;5069105;28;20448;-70
2023/12/31 02:44:32;;;;;;;;;;;;;;;;;;5057979;28;20329;-70
2023/12/31 02:46:59;;;;;;;;;;;;;;;;;;5072986;28;19929;-70
2023/12/31 02:49:26;;;;;;;;;;;;;;;;;;5073647;28;20001;-70
2023/12/31 02:51:54;;;;;;;;;;;;;;;;;;5072796;28;20081;-70
2023/12/31 02:54:21;;;;;;;;;;;;;;;;;;5071837;28;19924;-70
2023/12/31 02:56:48;;;;;;;;;;;;;;;;;;5072789;28;19978;-71
2023/12/31 02:59:15;;;;;;;;;;;;;;;;;;5070806;28;19970;-70
2023/12/31 03:01:42;;;;;;;;;;;;;;;;;;5069597;28;19970;-70
2023/12/31 03:04:09;;;;;;;;;;;;;;;;;;5068222;28;19924;-70
2023/12/31 03:06:36;;;;;;;;;;;;;;;;;;5068085;28;19924;-70
2023/12/31 03:09:03;;;;;;;;;;;;;;;;;;5070711;28;19986;-70
2023/12/31 03:11:30;;;;;;;;;;;;;;;;;;5069603;28;19986;-70
2023/12/31 03:13:57;;;;;;;;;;;;;;;;;;5071265;28;19928;-70
2023/12/31 03:16:25;;;;;;;;;;;;;;;;;;5068361;28;19924;-70
2023/12/31 03:18:52;;;;;;;;;;;;;;;;;;5068034;28;20020;-70
2023/12/31 03:21:19;;;;;;;;;;;;;;;;;;5064425;28;19925;-70
2023/12/31 03:23:46;;;;;;;;;;;;;;;;;;5070240;28;19924;-70
2023/12/31 03:26:13;;;;;;;;;;;;;;;;;;5069123;28;20344;-70
2023/12/31 03:28:41;;;;;;;;;;;;;;;;;;5063530;28;20275;-70
2023/12/31 03:31:08;;;;;;;;;;;;;;;;;;5071209;28;20460;-71
2023/12/31 03:33:35;;;;;;;;;;;;;;;;;;5071029;28;19924;-72
2023/12/31 03:36:02;;;;;;;;;;;;;;;;;;5069199;28;19985;-70
2023/12/31 03:38:29;;;;;;;;;;;;;;;;;;5069326;28;20330;-70
2023/12/31 03:40:56;;;;;;;;;;;;;;;;;;5071439;28;20383;-70
2023/12/31 03:43:23;;;;;;;;;;;;;;;;;;5071718;28;19924;-71
2023/12/31 03:45:50;;;;;;;;;;;;;;;;;;5072856;28;19925;-69
2023/12/31 03:48:17;;;;;;;;;;;;;;;;;;5070305;28;19936;-70
2023/12/31 03:50:44;;;;;;;;;;;;;;;;;;5070353;28;20375;-70
2023/12/31 03:53:11;;;;;;;;;;;;;;;;;;5072279;28;19924;-70
2023/12/31 03:55:39;;;;;;;;;;;;;;;;;;5070101;28;20597;-69
2023/12/31 03:58:06;;;;;;;;;;;;;;;;;;5070256;28;19992;-70
2023/12/31 04:00:34;;;;;;;;;;;;;;;;;;5068085;28;20624;-69
2023/12/31 04:03:01;;;;;;;;;;;;;;;;;;5065956;28;20373;-70
2023/12/31 04:05:28;;;;;;;;;;;;;;;;;;5059622;28;20659;-70
2023/12/31 04:07:55;;;;;;;;;;;;;;;;;;5069747;28;19989;-70
2023/12/31 04:10:22;;;;;;;;;;;;;;;;;;5069402;28;19978;-70
2023/12/31 04:12:49;;;;;;;;;;;;;;;;;;5068160;28;19970;-69
2023/12/31 04:15:16;;;;;;;;;;;;;;;;;;5071172;28;19924;-70
2023/12/31 04:17:43;;;;;;;;;;;;;;;;;;5071570;28;19924;-70
2023/12/31 04:20:10;;;;;;;;;;;;;;;;;;5070008;28;19924;-70
2023/12/31 04:22:37;;;;;;;;;;;;;;;;;;5067472;28;19928;-71
2023/12/31 04:25:04;;;;;;;;;;;;;;;;;;5064031;28;19924;-70
2023/12/31 04:27:31;;;;;;;;;;;;;;;;;;5064884;28;19967;-69
2023/12/31 04:29:58;;;;;;;;;;;;;;;;;;5065772;28;19940;-70
2023/12/31 04:32:26;;;;;;;;;;;;;;;;;;5068028;28;19962;-70
2023/12/31 04:34:53;;;;;;;;;;;;;;;;;;5067443;28;20368;-70
2023/12/31 04:37:20;;;;;;;;;;;;;;;;;;5069415;28;19993;-70
2023/12/31 04:39:47;;;;;;;;;;;;;;;;;;5068469;28;20013;-70
2023/12/31 04:42:14;;;;;;;;;;;;;;;;;;5065956;28;19924;-70
2023/12/31 04:44:41;;;;;;;;;;;;;;;;;;5070248;28;20001;-70
2023/12/31 04:47:08;;;;;;;;;;;;;;;;;;5067680;28;19928;-70
2023/12/31 04:49:35;;;;;;;;;;;;;;;;;;5068642;28;19924;-70
2023/12/31 04:52:02;;;;;;;;;;;;;;;;;;5063682;28;19964;-71
2023/12/31 04:54:29;;;;;;;;;;;;;;;;;;5065240;28;19925;-70
2023/12/31 04:56:57;;;;;;;;;;;;;;;;;;5066701;28;19936;-70
2023/12/31 04:59:24;;;;;;;;;;;;;;;;;;5070341;28;19924;-70
2023/12/31 05:01:51;;;;;;;;;;;;;;;;;;5066127;28;20021;-70
2023/12/31 05:04:18;;;;;;;;;;;;;;;;;;5069545;28;20015;-71
2023/12/31 05:06:46;;;;;;;;;;;;;;;;;;5069228;28;19931;-71
2023/12/31 05:09:13;;;;;;;;;;;;;;;;;;5067338;28;19978;-70
2023/12/31 05:11:40;;;;;;;;;;;;;;;;;;5067652;28;20729;-70
2023/12/31 05:14:07;;;;;;;;;;;;;;;;;;5068495;28;20436;-69
2023/12/31 05:16:34;;;;;;;;;;;;;;;;;;5070402;28;19984;-69
2023/12/31 05:19:01;;;;;;;;;;;;;;;;;;5059713;28;19924;-69
2023/12/31 05:21:28;;;;;;;;;;;;;;;;;;5067946;28;19924;-69
2023/12/31 05:23:55;;;;;;;;;;;;;;;;;;5070142;28;20021;-69
2023/12/31 05:26:22;;;;;;;;;;;;;;;;;;5068479;28;20398;-69
2023/12/31 05:28:49;;;;;;;;;;;;;;;;;;5069508;28;19932;-69
2023/12/31 05:31:16;;;;;;;;;;;;;;;;;;5069762;28;19928;-69
2023/12/31 05:33:43;;;;;;;;;;;;;;;;;;5067261;28;19924;-68
2023/12/31 05:36:10;;;;;;;;;;;;;;;;;;5071440;28;19928;-71
2023/12/31 05:38:37;;;;;;;;;;;;;;;;;;5070361;28;19924;-72
2023/12/31 05:41:04;;;;;;;;;;;;;;;;;;5069138;28;19925;-72
2023/12/31 05:43:31;;;;;;;;;;;;;;;;;;5067505;28;19954;-72
2023/12/31 05:45:59;;;;;;;;;;;;;;;;;;5072851;28;19932;-72
2023/12/31 05:48:26;;;;;;;;;;;;;;;;;;5071715;28;20296;-73
2023/12/31 05:50:53;;;;;;;;;;;;;;;;;;5073297;28;19924;-73
2023/12/31 05:53:20;;;;;;;;;;;;;;;;;;5061889;28;19978;-73
2023/12/31 05:55:47;;;;;;;;;;;;;;;;;;5069520;28;20045;-72
2023/12/31 05:58:14;;;;;;;;;;;;;;;;;;5071704;28;19925;-72
2023/12/31 06:00:41;;;;;;;;;;;;;;;;;;5072307;28;20341;-72
2023/12/31 06:03:08;;;;;;;;;;;;;;;;;;5070992;28;20403;-71
2023/12/31 06:05:35;;;;;;;;;;;;;;;;;;5071308;28;19924;-72
2023/12/31 06:08:03;;;;;;;;;;;;;;;;;;5072278;28;20045;-72
2023/12/31 06:10:30;;;;;;;;;;;;;;;;;;5067273;28;19951;-70
2023/12/31 06:12:57;;;;;;;;;;;;;;;;;;5062419;28;19994;-70
2023/12/31 06:15:24;;;;;;;;;;;;;;;;;;5071610;28;19924;-69
2023/12/31 06:17:51;;;;;;;;;;;;;;;;;;5071093;28;19928;-71
2023/12/31 06:20:18;;;;;;;;;;;;;;;;;;5073142;28;19936;-71
2023/12/31 06:22:45;;;;;;;;;;;;;;;;;;5069419;28;19925;-71
2023/12/31 06:25:12;;;;;;;;;;;;;;;;;;5073212;28;19928;-72
2023/12/31 06:27:39;;;;;;;;;;;;;;;;;;5071411;28;19974;-71
2023/12/31 06:30:06;;;;;;;;;;;;;;;;;;5072785;28;19925;-72
2023/12/31 06:32:33;;;;;;;;;;;;;;;;;;5062971;28;20033;-71
2023/12/31 06:35:00;;;;;;;;;;;;;;;;;;5072213;28;19932;-70
2023/12/31 06:37:27;;;;;;;;;;;;;;;;;;5072575;28;19936;-71
2023/12/31 06:39:54;;;;;;;;;;;;;;;;;;5071235;28;19948;-70
2023/12/31 06:42:21;;;;;;;;;;;;;;;;;;5069001;28;19924;-70
2023/12/31 06:44:48;;;;;;;;;;;;;;;;;;5071368;28;19925;-70
2023/12/31 06:47:16;;;;;;;;;;;;;;;;;;5069369;28;19924;-71
2023/12/31 06:49:43;;;;;;;;;;;;;;;;;;5070423;28;19971;-70
2023/12/31 06:52:10;;;;;;;;;;;;;;;;;;5070775;28;19932;-71
2023/12/31 06:54:37;;;;;;;;;;;;;;;;;;5071197;28;19979;-70
2023/12/31 06:57:05;;;;;;;;;;;;;;;;;;5071290;28;19925;-70
2023/12/31 06:59:32;;;;;;;;;;;;;;;;;;5071295;28;19936;-70
2023/12/31 07:01:59;;;;;;;;;;;;;;;;;;5069261;28;20490;-71
2023/12/31 07:04:27;;;;;;;;;;;;;;;;;;5071032;28;19925;-71
2023/12/31 07:06:54;;;;;;;;;;;;;;;;;;5069708;28;19928;-71
2023/12/31 07:09:21;;;;;;;;;;;;;;;;;;5069904;28;20330;-70
2023/12/31 07:11:48;;;;;;;;;;;;;;;;;;5070187;28;20449;-71
2023/12/31 07:14:15;;;;;;;;;;;;;;;;;;5069773;28;19947;-70
2023/12/31 07:16:42;;;;;;;;;;;;;;;;;;5068362;28;19928;-70
2023/12/31 07:19:09;;;;;;;;;;;;;;;;;;5070190;28;19985;-71
2023/12/31 07:21:36;;;;;;;;;;;;;;;;;;5069092;28;19932;-71
2023/12/31 07:24:03;;;;;;;;;;;;;;;;;;5073176;28;19995;-71
2023/12/31 07:26:30;;;;;;;;;;;;;;;;;;5072330;28;20398;-71
2023/12/31 07:28:57;;;;;;;;;;;;;;;;;;5072292;28;19924;-71
2023/12/31 07:31:24;;;;;;;;;;;;;;;;;;5067957;28;19971;-71
2023/12/31 07:33:51;;;;;;;;;;;;;;;;;;5070404;28;20101;-70
2023/12/31 07:36:18;;;;;;;;;;;;;;;;;;5070655;28;19925;-71
2023/12/31 07:38:45;;;;;;;;;;;;;;;;;;5071915;28;19924;-70
2023/12/31 07:41:13;;;;;;;;;;;;;;;;;;5067966;28;19978;-71
2023/12/31 07:43:40;;;;;;;;;;;;;;;;;;5071197;28;20007;-71
2023/12/31 07:46:07;;;;;;;;;;;;;;;;;;5068706;28;19924;-71
2023/12/31 07:48:34;;;;;;;;;;;;;;;;;;5067537;28;19925;-71
2023/12/31 07:51:03;;;;;;;;;;;;;;;;;;5068153;28;20459;-71
2023/12/31 07:53:30;;;;;;;;;;;;;;;;;;5065738;28;19978;-69
2023/12/31 07:55:57;;;;;;;;;;;;;;;;;;5070547;28;19929;-69
2023/12/31 07:58:27;;;;;;;;;;;;;;;;;;5070107;28;20025;-69
2023/12/31 08:00:54;;;;;;;;;;;;;;;;;;5063787;28;19932;-69
2023/12/31 08:03:21;;;;;;;;;;;;;;;;;;5069859;28;19924;-69
2023/12/31 08:05:48;;;;;;;;;;;;;;;;;;5065743;28;20057;-69
2023/12/31 08:08:15;;;;;;;;;;;;;;;;;;5067529;28;19986;-69
2023/12/31 08:10:42;;;;;;;;;;;;;;;;;;5068382;28;19985;-69
2023/12/31 08:13:09;;;;;;;;;;;;;;;;;;5069810;28;19936;-68
2023/12/31 08:15:36;;;;;;;;;;;;;;;;;;5070621;28;19985;-69
2023/12/31 08:18:04;;;;;;;;;;;;;;;;;;5067957;28;19932;-70
2023/12/31 08:20:33;;;;;;;;;;;;;;;;;;5067978;28;19994;-69
2023/12/31 08:23:00;;;;;;;;;;;;;;;;;;5070018;28;20293;-72
2023/12/31 08:25:27;;;;;;;;;;;;;;;;;;5067261;28;19931;-71
2023/12/31 08:27:54;;;;;;;;;;;;;;;;;;5070647;28;19924;-71
2023/12/31 08:30:21;;;;;;;;;;;;;;;;;;5068824;28;19931;-72
2023/12/31 08:32:48;;;;;;;;;;;;;;;;;;5067752;28;19977;-72
2023/12/31 08:35:16;;;;;;;;;;;;;;;;;;5068717;28;19924;-71
2023/12/31 08:37:43;;;;;;;;;;;;;;;;;;5068088;28;19999;-70
2023/12/31 08:40:10;;;;;;;;;;;;;;;;;;5066098;28;20337;-72
2023/12/31 08:42:39;;;;;;;;;;;;;;;;;;5068589;28;19967;-71
2023/12/31 08:45:07;;;;;;;;;;;;;;;;;;5070535;28;19936;-71
2023/12/31 08:47:35;;;;;;;;;;;;;;;;;;5065954;28;20498;-72
2023/12/31 08:50:07;;;;;;;;;;;;;;;;;;5064166;28;19932;-71
2023/12/31 08:52:35;;;;;;;;;;;;;;;;;;5068194;28;19931;-71
2023/12/31 08:55:02;;;;;;;;;;;;;;;;;;5062709;28;19925;-72
2023/12/31 08:57:29;;;;;;;;;;;;;;;;;;5066001;28;19979;-71
2023/12/31 08:59:56;;;;;;;;;;;;;;;;;;5068801;28;19940;-71
2023/12/31 09:02:23;;;;;;;;;;;;;;;;;;5058475;28;19928;-71
2023/12/31 09:04:50;;;;;;;;;;;;;;;;;;5065455;28;19977;-71
2023/12/31 09:07:17;;;;;;;;;;;;;;;;;;5062239;28;19925;-71
2023/12/31 09:09:44;;;;;;;;;;;;;;;;;;5062898;28;20352;-71
2023/12/31 09:12:11;;;;;;;;;;;;;;;;;;5061903;28;20379;-71
2023/12/31 09:14:38;;;;;;;;;;;;;;;;;;5063526;28;19954;-70
2023/12/31 09:17:05;;;;;;;;;;;;;;;;;;5059521;28;19931;-70
2023/12/31 09:19:32;;;;;;;;;;;;;;;;;;5070662;28;19929;-71
2023/12/31 09:21:59;;;;;;;;;;;;;;;;;;5069670;28;19978;-70
2023/12/31 09:24:26;;;;;;;;;;;;;;;;;;5068920;28;19970;-70
2023/12/31 09:26:53;;;;;;;;;;;;;;;;;;5072433;28;19993;-70
2023/12/31 09:29:20;;;;;;;;;;;;;;;;;;5069155;28;19928;-70
2023/12/31 09:31:47;;;;;;;;;;;;;;;;;;5071228;28;19981;-69
2023/12/31 09:34:14;;;;;;;;;;;;;;;;;;5062841;28;19933;-70
2023/12/31 09:36:41;;;;;;;;;;;;;;;;;;5064045;28;19928;-70
2023/12/31 09:39:08;;;;;;;;;;;;;;;;;;5060884;28;19928;-70
2023/12/31 09:41:36;;;;;;;;;;;;;;;;;;5061558;28;19981;-71
2023/12/31 09:44:03;;;;;;;;;;;;;;;;;;5072751;28;19924;-70
2023/12/31 09:46:31;;;;;;;;;;;;;;;;;;5062415;28;19948;-71
2023/12/31 09:48:58;;;;;;;;;;;;;;;;;;5061934;28;19967;-71
2023/12/31 09:51:25;;;;;;;;;;;;;;;;;;5063397;28;19932;-72
2023/12/31 09:53:53;;;;;;;;;;;;;;;;;;5063744;28;19950;-71
2023/12/31 09:56:20;;;;;;;;;;;;;;;;;;5069992;28;19968;-71
2023/12/31 09:58:48;;;;;;;;;;;;;;;;;;5062359;28;19925;-71
2023/12/31 10:01:16;;;;;;;;;;;;;;;;;;5068435;28;19931;-71
2023/12/31 10:03:44;;;;;;;;;;;;;;;;;;5062678;28;19929;-72
2023/12/31 10:06:11;;;;;;;;;;;;;;;;;;5063323;28;19940;-71
2023/12/31 10:08:38;;;;;;;;;;;;;;;;;;5063229;28;19952;-71
2023/12/31 10:11:05;;;;;;;;;;;;;;;;;;5067247;28;20019;-71
2023/12/31 10:13:32;;;;;;;;;;;;;;;;;;5071610;28;19974;-72
2023/12/31 10:15:59;;;;;;;;;;;;;;;;;;5072119;28;19924;-71
2023/12/31 10:18:26;;;;;;;;;;;;;;;;;;5066081;28;20013;-70
2023/12/31 10:20:53;;;;;;;;;;;;;;;;;;5069037;28;20374;-70
2023/12/31 10:23:20;;;;;;;;;;;;;;;;;;5068005;28;19925;-69
2023/12/31 10:25:47;;;;;;;;;;;;;;;;;;5071963;28;19924;-70
2023/12/31 10:28:14;;;;;;;;;;;;;;;;;;5058662;28;20380;-70
2023/12/31 10:30:41;;;;;;;;;;;;;;;;;;5065225;28;19994;-69
2023/12/31 10:33:08;;;;;;;;;;;;;;;;;;5068404;28;19925;-69
2023/12/31 10:35:35;;;;;;;;;;;;;;;;;;5058569;28;19975;-70
2023/12/31 10:38:03;;;;;;;;;;;;;;;;;;5058134;28;19969;-70
2023/12/31 10:40:30;;;;;;;;;;;;;;;;;;5063895;28;19925;-69
2023/12/31 10:42:58;;;;;;;;;;;;;;;;;;5060345;28;20391;-70
2023/12/31 10:45:25;;;;;;;;;;;;;;;;;;5057806;28;20501;-70
2023/12/31 10:47:53;;;;;;;;;;;;;;;;;;5052349;28;20539;-71
2023/12/31 10:50:20;;;;;;;;;;;;;;;;;;5063987;28;19963;-70
2023/12/31 10:52:47;;;;;;;;;;;;;;;;;;5053819;28;19932;-69
2023/12/31 10:55:14;;;;;;;;;;;;;;;;;;5054487;28;19982;-70
2023/12/31 10:57:41;;;;;;;;;;;;;;;;;;5058690;28;19978;-71
2023/12/31 11:00:09;;;;;;;;;;;;;;;;;;5071591;28;20243;-70
2023/12/31 11:02:36;;;;;;;;;;;;;;;;;;5057334;28;20070;-70
2023/12/31 11:05:04;;;;;;;;;;;;;;;;;;5057946;28;19929;-69
2023/12/31 11:07:31;;;;;;;;;;;;;;;;;;5059087;28;20063;-70
2023/12/31 11:09:58;;;;;;;;;;;;;;;;;;5058055;28;19924;-68
2023/12/31 11:12:25;;;;;;;;;;;;;;;;;;5062904;28;19933;-68
2023/12/31 11:14:52;;;;;;;;;;;;;;;;;;5067103;28;20330;-70
2023/12/31 11:17:19;;;;;;;;;;;;;;;;;;5063328;28;19925;-71
2023/12/31 11:19:46;;;;;;;;;;;;;;;;;;5060227;28;20026;-69
2023/12/31 11:22:14;;;;;;;;;;;;;;;;;;5063141;28;19978;-73
2023/12/31 11:24:41;;;;;;;;;;;;;;;;;;5062223;28;19970;-74
2023/12/31 11:27:08;;;;;;;;;;;;;;;;;;5057881;28;19936;-75
2023/12/31 11:29:35;;;;;;;;;;;;;;;;;;5057171;28;20019;-74
2023/12/31 11:32:02;;;;;;;;;;;;;;;;;;5064437;28;20404;-75
2023/12/31 11:34:29;;;;;;;;;;;;;;;;;;5062630;28;19986;-75
2023/12/31 11:36:56;;;;;;;;;;;;;;;;;;5074785;28;19974;-74
2023/12/31 11:39:24;;;;;;;;;;;;;;;;;;5069801;28;19963;-74
2023/12/31 11:41:52;;;;;;;;;;;;;;;;;;5071383;28;19924;-73
2023/12/31 11:44:19;;;;;;;;;;;;;;;;;;5060606;28;19932;-73
2023/12/31 11:46:49;;;;;;;;;;;;;;;;;;5078576;28;19970;-75
2023/12/31 11:49:16;;;;;;;;;;;;;;;;;;5067607;28;19924;-73
2023/12/31 11:51:43;;;;;;;;;;;;;;;;;;5070422;28;19951;-72
2023/12/31 11:54:10;;;;;;;;;;;;;;;;;;5063477;28;19925;-73
2023/12/31 11:56:38;;;;;;;;;;;;;;;;;;5062286;28;19932;-74
2023/12/31 11:59:04;;;;;;;;;;;;;;;;;;5059658;28;20456;-73
2023/12/31 12:01:31;;;;;;;;;;;;;;;;;;5061750;28;20110;-74
2023/12/31 12:03:58;;;;;;;;;;;;;;;;;;5057644;28;20298;-74
2023/12/31 12:06:25;;;;;;;;;;;;;;;;;;5066555;28;20059;-75
2023/12/31 12:08:52;;;;;;;;;;;;;;;;;;5057117;28;20033;-73
2023/12/31 12:11:19;;;;;;;;;;;;;;;;;;5056877;28;20505;-73
2023/12/31 12:13:46;;;;;;;;;;;;;;;;;;5067750;28;20400;-73
2023/12/31 12:16:14;;;;;;;;;;;;;;;;;;5060303;28;20295;-73
2023/12/31 12:18:41;;;;;;;;;;;;;;;;;;5068081;28;20443;-73
2023/12/31 12:21:08;;;;;;;;;;;;;;;;;;5066812;28;19978;-74
2023/12/31 12:23:35;;;;;;;;;;;;;;;;;;5053743;28;19925;-75
2023/12/31 12:26:02;;;;;;;;;;;;;;;;;;5064407;28;19925;-74
2023/12/31 12:28:29;;;;;;;;;;;;;;;;;;5055417;28;19982;-74
2023/12/31 12:30:57;;;;;;;;;;;;;;;;;;5061424;28;19929;-75
2023/12/31 12:33:24;;;;;;;;;;;;;;;;;;5068221;28;19989;-75
2023/12/31 12:35:52;;;;;;;;;;;;;;;;;;5061397;28;19924;-75
2023/12/31 12:38:19;;;;;;;;;;;;;;;;;;5061332;28;20011;-74
2023/12/31 12:40:46;;;;;;;;;;;;;;;;;;5056700;28;19954;-75
2023/12/31 12:43:14;;;;;;;;;;;;;;;;;;5066131;28;19978;-75
2023/12/31 12:45:41;;;;;;;;;;;;;;;;;;5062845;28;19925;-75
2023/12/31 12:48:10;;;;;;;;;;;;;;;;;;5069113;28;19933;-75
2023/12/31 12:50:37;;;;;;;;;;;;;;;;;;5062915;28;19939;-75
2023/12/31 12:53:04;;;;;;;;;;;;;;;;;;5070401;28;20003;-75
2023/12/31 12:55:31;;;;;;;;;;;;;;;;;;5062968;28;19925;-75
2023/12/31 12:57:58;;;;;;;;;;;;;;;;;;5066293;28;19929;-75
2023/12/31 13:00:26;;;;;;;;;;;;;;;;;;5067461;28;19978;-75
2023/12/31 13:02:53;;;;;;;;;;;;;;;;;;5070208;28;19932;-75
2023/12/31 13:05:20;;;;;;;;;;;;;;;;;;5066204;28;19925;-75
2023/12/31 13:07:47;;;;;;;;;;;;;;;;;;5057110;28;19924;-74
2023/12/31 13:10:14;;;;;;;;;;;;;;;;;;5049988;28;20017;-72
2023/12/31 13:12:41;;;;;;;;;;;;;;;;;;5066312;28;19990;-73
2023/12/31 13:15:08;;;;;;;;;;;;;;;;;;5052862;28;19986;-74
2023/12/31 13:17:36;;;;;;;;;;;;;;;;;;5058121;28;20425;-74
2023/12/31 13:20:05;;;;;;;;;;;;;;;;;;5060670;28;20348;-74
2023/12/31 13:22:32;;;;;;;;;;;;;;;;;;5053279;28;20019;-74
2023/12/31 13:24:59;;;;;;;;;;;;;;;;;;5058356;28;20654;-75
2023/12/31 13:27:28;;;;;;;;;;;;;;;;;;5063859;28;19925;-74
2023/12/31 13:29:55;;;;;;;;;;;;;;;;;;5067829;28;19925;-73
2023/12/31 13:32:22;;;;;;;;;;;;;;;;;;5062414;28;19978;-73
2023/12/31 13:34:49;;;;;;;;;;;;;;;;;;5061130;28;19928;-73
2023/12/31 13:37:16;;;;;;;;;;;;;;;;;;5065645;28;19986;-73
2023/12/31 13:39:43;;;;;;;;;;;;;;;;;;5066779;28;19928;-74
2023/12/31 13:42:10;;;;;;;;;;;;;;;;;;5069559;28;20002;-75
2023/12/31 13:44:37;;;;;;;;;;;;;;;;;;5067154;28;20336;-73
2023/12/31 13:47:04;;;;;;;;;;;;;;;;;;5065267;28;19924;-73
2023/12/31 13:49:32;;;;;;;;;;;;;;;;;;5062323;28;20004;-73
2023/12/31 13:51:59;;;;;;;;;;;;;;;;;;5067413;28;20380;-74
2023/12/31 13:54:26;;;;;;;;;;;;;;;;;;5068868;28;20367;-71
2023/12/31 13:56:53;;;;;;;;;;;;;;;;;;5063948;28;19925;-71
2023/12/31 13:59:20;;;;;;;;;;;;;;;;;;5063675;28;19928;-73
2023/12/31 14:01:48;;;;;;;;;;;;;;;;;;5063674;28;19928;-73
2023/12/31 14:04:15;;;;;;;;;;;;;;;;;;5068139;28;20113;-70
2023/12/31 14:06:44;;;;;;;;;;;;;;;;;;5063741;28;20286;-71
2023/12/31 14:09:12;;;;;;;;;;;;;;;;;;5065437;28;22198;-71
2023/12/31 14:11:41;;;;;;;;;;;;;;;;;;5066144;28;20022;-71
2023/12/31 14:14:08;;;;;;;;;;;;;;;;;;5063022;28;19925;-71
2023/12/31 14:16:35;;;;;;;;;;;;;;;;;;5059160;28;20015;-72
2023/12/31 14:19:04;;;;;;;;;;;;;;;;;;5062461;28;20357;-73
2023/12/31 14:21:32;;;;;;;;;;;;;;;;;;5056754;28;19940;-73
2023/12/31 14:23:59;;;;;;;;;;;;;;;;;;5057104;28;20403;-72
2023/12/31 14:26:26;;;;;;;;;;;;;;;;;;5062005;28;19936;-74
2023/12/31 14:28:53;;;;;;;;;;;;;;;;;;5058031;28;19925;-73
2023/12/31 14:31:20;;;;;;;;;;;;;;;;;;5061188;28;19924;-73
2023/12/31 14:33:47;;;;;;;;;;;;;;;;;;5064782;28;19925;-73
2023/12/31 14:36:15;;;;;;;;;;;;;;;;;;5060718;28;19925;-72
2023/12/31 14:38:42;;;;;;;;;;;;;;;;;;5066616;28;19924;-74
2023/12/31 14:41:09;;;;;;;;;;;;;;;;;;5060697;28;19982;-72
2023/12/31 14:43:36;;;;;;;;;;;;;;;;;;5061875;28;19979;-72
2023/12/31 14:46:03;;;;;;;;;;;;;;;;;;5072257;28;20478;-72
2023/12/31 14:48:31;;;;;;;;;;;;;;;;;;5060144;28;20337;-73
2023/12/31 14:50:58;;;;;;;;;;;;;;;;;;5064705;28;20006;-70
2023/12/31 14:53:25;;;;;;;;;;;;;;;;;;5059262;28;20380;-72
2023/12/31 14:55:53;;;;;;;;;;;;;;;;;;5061679;28;20393;-73
2023/12/31 14:58:21;;;;;;;;;;;;;;;;;;5060221;28;20268;-72
2023/12/31 15:00:48;;;;;;;;;;;;;;;;;;5059322;28;19924;-72
2023/12/31 15:03:16;;;;;;;;;;;;;;;;;;5060259;28;19932;-72
2023/12/31 15:05:43;;;;;;;;;;;;;;;;;;5067609;28;19986;-74
2023/12/31 15:08:10;;;;;;;;;;;;;;;;;;5057621;28;19932;-74
2023/12/31 15:10:38;;;;;;;;;;;;;;;;;;5051825;28;19924;-73
2023/12/31 15:13:06;;;;;;;;;;;;;;;;;;5063283;28;20451;-73
2023/12/31 15:15:33;;;;;;;;;;;;;;;;;;5065105;28;19967;-73
2023/12/31 15:18:03;;;;;;;;;;;;;;;;;;5065949;28;19928;-73
2023/12/31 15:20:30;;;;;;;;;;;;;;;;;;5065869;28;19959;-73
2023/12/31 15:22:57;;;;;;;;;;;;;;;;;;5066558;28;19924;-72
2023/12/31 15:25:24;;;;;;;;;;;;;;;;;;5059700;28;19924;-73
2023/12/31 15:27:51;;;;;;;;;;;;;;;;;;5061143;28;19925;-73
2023/12/31 15:30:18;;;;;;;;;;;;;;;;;;5061482;28;19925;-73
2023/12/31 15:32:45;;;;;;;;;;;;;;;;;;5059642;28;19929;-72
2023/12/31 15:35:13;;;;;;;;;;;;;;;;;;5061340;28;19932;-72
2023/12/31 15:37:42;;;;;;;;;;;;;;;;;;5066637;28;19960;-72
2023/12/31 15:40:09;;;;;;;;;;;;;;;;;;5056219;28;20086;-72
2023/12/31 15:42:36;;;;;;;;;;;;;;;;;;5055561;28;19960;-74
2023/12/31 15:45:04;;;;;;;;;;;;;;;;;;5059866;28;20314;-74
2023/12/31 15:47:31;;;;;;;;;;;;;;;;;;5064348;28;19931;-73
2023/12/31 15:49:58;;;;;;;;;;;;;;;;;;5062288;28;19929;-72
2023/12/31 15:52:25;;;;;;;;;;;;;;;;;;5061138;28;21848;-74
2023/12/31 15:54:54;;;;;;;;;;;;;;;;;;5067119;28;19925;-74
2023/12/31 15:57:21;;;;;;;;;;;;;;;;;;5067029;28;19931;-72
2023/12/31 15:59:50;;;;;;;;;;;;;;;;;;5064982;28;19959;-72
2023/12/31 16:02:18;;;;;;;;;;;;;;;;;;5060167;28;20427;-73
2023/12/31 16:04:46;;;;;;;;;;;;;;;;;;5056535;28;22026;-73
2023/12/31 16:07:13;;;;;;;;;;;;;;;;;;5059788;28;19955;-73
2023/12/31 16:09:40;;;;;;;;;;;;;;;;;;5060874;28;20008;-74
2023/12/31 16:12:08;;;;;;;;;;;;;;;;;;5069898;28;20020;-75
2023/12/31 16:14:35;;;;;;;;;;;;;;;;;;5060470;28;21008;-71
2023/12/31 16:17:02;;;;;;;;;;;;;;;;;;5066896;28;20001;-72
2023/12/31 16:19:29;;;;;;;;;;;;;;;;;;5057873;28;19935;-71
2023/12/31 16:21:57;;;;;;;;;;;;;;;;;;5057292;28;19948;-70
2023/12/31 16:24:24;;;;;;;;;;;;;;;;;;5057127;28;19933;-71
2023/12/31 16:26:51;;;;;;;;;;;;;;;;;;5062070;28;19986;-70
2023/12/31 16:29:18;;;;;;;;;;;;;;;;;;5064300;28;19955;-71
2023/12/31 16:31:45;;;;;;;;;;;;;;;;;;5066242;28;20399;-71
2023/12/31 16:34:12;;;;;;;;;;;;;;;;;;5067300;28;19990;-71
2023/12/31 16:36:39;;;;;;;;;;;;;;;;;;5067049;28;19941;-71
2023/12/31 16:39:06;;;;;;;;;;;;;;;;;;5068126;28;19929;-71
2023/12/31 16:41:33;;;;;;;;;;;;;;;;;;5061578;28;19929;-71
2023/12/31 16:44:00;;;;;;;;;;;;;;;;;;5064531;28;19928;-71